Richmond, TX (77469)

1:43 PM CDT on August 28, 2015 (GMT -0500)
APRSWXNET | | Change Station
CLOSE
Current Station
Personal Weather Station
Location: Richmond, TX
Elevation: 104 ft
Nearby Weather Stations

Elev 104 ft 29.55 °N, 95.81 °W | Updated 26 minutes ago

Partly Cloudy
Partly Cloudy
89 °F
Feels Like 93 °F
N
2
Wind Variable Wind from NE
Gusts 6.0 mph

Today
High -- | Low -- °F
--% Chance of Precip.
Yesterday
High -- | Low -- °F
Precip. -- in
6:58 AM 7:50 PM
Waxing Gibbous, 98% visible
Pressure 30.02 in
Visibility 10.0 miles
Clouds Scattered Clouds 4200 ft
Heat Index 93 °F
Dew Point 68 °F
Humidity 51%
Rainfall in
Snow Depth Not available.
UV 9 out of 12
Pollen 5.50 out of 12
Air Quality Not available.
Flu Activity Not available.
METAR KSGR 281753Z 29007KT 10SM SCT042 31/21 A3002 RMK AO2 SLP165 T03060211 10311 20206 58004
Pressure 30.02 in
Visibility 10.0 miles
Clouds Scattered Clouds 4200 ft
Heat Index 93 °F
Dew Point 68 °F
Humidity 51%
Rainfall in
Snow Depth Not available.
UV 9 out of 12
Pollen 5.50 out of 12
Air Quality Not available.
Flu Activity Not available.
METAR KSGR 281753Z 29007KT 10SM SCT042 31/21 A3002 RMK AO2 SLP165 T03060211 10311 20206 58004

10-Day Weather Forecast

×

Almanac

Astronomy

Aug. 28, 2015 Rise Set
Actual Time
Civil Twilight
Nautical Twilight
Astronomical Twilight
Moon
Length of Visible Light
Length of Day
Tomorrow will be .
, % of the Moon is Illuminated

Today's Extremes

State Highs State Lows

Community

WunderPhotos

Upload Photos

1,850,453 photos uploaded!

WunderBlogs® & News

Nearby

Air Quality

  Air Quality AQ Index Pollutant
Not available.

Snow Depth

Station Depth Elevation

Earthquake Activity

City Distance Mag. Time & Date
Minimum magnitude displayed is 2.5.

Coastal Water Temperatures

Place Temperature

Stations

Nearby Weather Stations

Station Location Temp. Windchill Dew Point Humidity Wind Precip. Elev Updated Type